Spring Arbor, Michigan
Current Conditions -  °F | °C
As of 6:56 PM on Monday 24 Nov 2014 (Local Time) from KJXN Reporting Station
Overcast Overcast  
Wind Chill: 22°   Ceiling: 1800
Heat Index: 34°   Visibility: 10mi
Dew Point: 28°   Wind: 23mph
Humidity: 79%   Direction: 230°SW
Pressure: 29.55"   Gusts: 40mph
Location:  42.21°N, 84.56°W
Report Text: KJXN 242356Z 23020G35KT 10SM OVC018 01/M02 A2955 RMK AO2 PK WND 23039/2315 SLP010 60000 T00111022 10061 20011 53046
Loading
Personal Weather Stations






























Interactive Weather Map New forecast layout! Learn more

10-Day Weather Forecast

Advertisements
Track Severe Weather on mobile